METAR & TAF Report
Available data for CYAM from the past 6 hours
SAULT STE MARIE, ON
Metar
CYAM 230800Z 08008KT 15SM OVC019 OVC110 18/13 A2979 RMK SC8AC1 AC TR SLP088 DENSITY ALT 1400FT

08:00 UTC

Wind: 80° 8kt

Visibility: 15 SM

Sky: OVC 1900 ft

Temp: 18 deg C / 64.4 deg F

Dewpoint: 13 deg C / 55.4 deg F

Pressure: 29.79 inHg

TAF
TAF AMD CYAM 230741Z 2308/2320 08008KT P6SM FEW030 BKN080 TEMPO 2308/2310 5SM -SHRA BR OVC020 FM230930 08008KT P6SM -SHRA OVC080 TEMPO 2309/2314 VRB15G25KT 11/2SM TSRA OVC020CB FM231400 08008KT P6SM -SHRA OVC080 PROB40 2314/2317 VRB15G25KT 11/2SM TSRA OVC050CB FM231700 08013G23KT P6SM -SHRA OVC050 RMK NXT FCST BY 231400Z
NOTAM

Click here for NOTAMs.